Time;durP1;ratioP1;P1;durP2;ratioP2;P2;SDS_P1;SDS_P2;PMS_P1;PMS_P2;Temp;Humidity;BMP_temperature;BMP_pressure;BME280_temperature;BME280_humidity;BME280_pressure;Samples;Min_cycle;Max_cycle;Signal;HPM_P1;HPM_P2
2022/07/08 00:01:19;;;;;;;4.90;2.70;;;26.50;50.90;;;;;;5055991;28;20029;-80
2022/07/08 00:03:45;;;;;;;3.95;2.80;;;26.40;51.10;;;;;;5073866;28;20029;-82
2022/07/08 00:06:10;;;;;;;6.00;2.80;;;26.40;50.90;;;;;;5054942;28;20123;-86
2022/07/08 00:08:36;;;;;;;4.72;2.85;;;26.20;51.20;;;;;;5053900;28;20028;-81
2022/07/08 00:11:02;;;;;;;6.18;2.65;;;26.10;51.50;;;;;;5073890;28;20028;-86
2022/07/08 00:13:28;;;;;;;3.95;2.72;;;26.10;51.60;;;;;;5073496;28;20035;-82
2022/07/08 00:15:54;;;;;;;4.55;2.60;;;26.00;51.70;;;;;;5055541;28;20032;-91
2022/07/08 00:18:20;;;;;;;4.60;2.90;;;25.90;51.90;;;;;;5056056;28;20027;-88
2022/07/08 00:20:45;;;;;;;4.07;2.60;;;25.90;51.60;;;;;;5056170;28;20024;-81
2022/07/08 00:23:11;;;;;;;4.85;2.80;;;26.10;51.70;;;;;;5055818;28;20118;-82
2022/07/08 00:25:37;;;;;;;4.70;2.88;;;26.10;51.40;;;;;;5073170;28;20053;-80
2022/07/08 00:28:02;;;;;;;4.38;2.70;;;26.30;51.60;;;;;;5073959;28;20483;-83
2022/07/08 00:30:28;;;;;;;4.95;2.65;;;26.40;51.50;;;;;;5055585;28;20161;-79
2022/07/08 00:32:54;;;;;;;6.32;3.13;;;26.20;51.50;;;;;;5073937;28;20020;-88
2022/07/08 00:35:19;;;;;;;7.32;2.70;;;26.10;51.70;;;;;;5054288;28;20020;-88
2022/07/08 00:37:45;;;;;;;4.90;2.90;;;26.00;51.90;;;;;;5072596;28;20479;-79
2022/07/08 00:40:11;;;;;;;3.58;2.67;;;25.90;52.20;;;;;;5055278;28;20090;-79
2022/07/08 00:42:37;;;;;;;6.80;2.75;;;25.80;52.20;;;;;;5072659;28;20536;-81
2022/07/08 00:45:03;;;;;;;6.93;2.97;;;25.70;52.40;;;;;;5071627;28;20016;-80
2022/07/08 00:47:29;;;;;;;4.05;2.80;;;25.80;52.10;;;;;;5055859;28;20024;-82
2022/07/08 00:49:55;;;;;;;5.22;2.85;;;25.50;52.70;;;;;;5073264;28;20020;-79
2022/07/08 00:52:21;;;;;;;4.97;2.92;;;25.50;52.90;;;;;;5073058;28;20035;-80
2022/07/08 00:54:48;;;;;;;4.55;2.88;;;25.50;53.00;;;;;;5046199;28;20021;-81
2022/07/08 00:57:15;;;;;;;3.72;2.80;;;25.80;52.40;;;;;;5035225;28;20056;-80
2022/07/08 00:59:42;;;;;;;4.95;2.85;;;26.00;52.20;;;;;;5053406;28;20053;-79
2022/07/08 01:02:08;;;;;;;3.95;2.60;;;26.00;52.20;;;;;;5051856;28;20035;-80
2022/07/08 01:04:35;;;;;;;4.15;2.90;;;25.90;52.30;;;;;;5059588;28;20028;-80
2022/07/08 01:07:01;;;;;;;4.85;2.80;;;25.90;52.40;;;;;;5073101;28;20036;-86
2022/07/08 01:09:27;;;;;;;5.18;2.90;;;25.80;52.40;;;;;;5072469;28;20028;-76
2022/07/08 01:11:53;;;;;;;6.07;3.05;;;25.50;52.60;;;;;;5073123;28;20052;-85
2022/07/08 01:14:18;;;;;;;4.40;2.78;;;25.50;52.80;;;;;;5071081;28;20012;-80
2022/07/08 01:16:44;;;;;;;4.82;3.30;;;25.60;52.70;;;;;;5071695;28;20028;-81
2022/07/08 01:19:10;;;;;;;3.90;2.90;;;25.70;52.80;;;;;;5055135;28;20071;-83
2022/07/08 01:21:36;;;;;;;4.88;2.90;;;25.70;52.90;;;;;;5072758;28;20047;-88
2022/07/08 01:24:02;;;;;;;4.10;2.80;;;25.60;52.90;;;;;;5072006;28;20093;-86
2022/07/08 01:26:28;;;;;;;4.18;3.03;;;25.70;53.00;;;;;;5072213;28;20044;-85
2022/07/08 01:28:55;;;;;;;5.75;3.00;;;25.70;52.70;;;;;;5053794;28;20028;-86
2022/07/08 01:31:23;;;;;;;4.05;2.80;;;25.40;53.40;;;;;;5072881;28;20100;-89
2022/07/08 01:33:48;;;;;;;4.28;3.03;;;25.50;52.90;;;;;;5054079;28;20108;-78
2022/07/08 01:36:14;;;;;;;6.10;2.97;;;25.50;53.10;;;;;;5071752;28;20382;-85
2022/07/08 01:38:40;;;;;;;4.35;2.90;;;25.50;53.00;;;;;;5072429;28;20075;-84
2022/07/08 01:41:05;;;;;;;4.90;2.67;;;25.40;53.20;;;;;;5054120;28;20036;-80
2022/07/08 01:43:31;;;;;;;5.35;2.90;;;25.40;53.10;;;;;;5071654;28;20111;-86
2022/07/08 01:45:57;;;;;;;7.22;3.00;;;25.50;53.00;;;;;;5072335;28;20068;-81
2022/07/08 01:48:22;;;;;;;4.53;3.00;;;25.40;53.30;;;;;;5071717;28;20015;-79
2022/07/08 01:50:49;;;;;;;4.63;2.90;;;25.30;53.30;;;;;;5076008;28;20032;-79
2022/07/08 01:53:14;;;;;;;4.32;2.63;;;25.30;53.30;;;;;;5075165;28;20320;-80
2022/07/08 01:55:40;;;;;;;5.70;2.80;;;25.20;53.40;;;;;;5076078;28;20509;-80
2022/07/08 01:58:06;;;;;;;5.65;2.53;;;25.00;53.80;;;;;;5057753;28;20036;-79
2022/07/08 02:00:32;;;;;;;6.18;2.88;;;25.10;53.80;;;;;;5075756;28;20036;-81
2022/07/08 02:02:58;;;;;;;3.90;2.63;;;25.10;53.80;;;;;;5074980;28;20028;-86
2022/07/08 02:05:26;;;;;;;7.10;2.70;;;25.30;53.50;;;;;;5076091;28;20127;-88
2022/07/08 02:07:52;;;;;;;5.03;2.70;;;25.40;53.30;;;;;;5053274;28;20037;-80
2022/07/08 02:10:17;;;;;;;4.38;2.92;;;25.30;53.40;;;;;;5038158;28;20078;-79
2022/07/08 02:12:43;;;;;;;6.32;3.00;;;25.30;53.60;;;;;;5060718;28;20017;-79
2022/07/08 02:15:09;;;;;;;4.38;2.75;;;25.20;53.60;;;;;;5058239;28;20039;-80
2022/07/08 02:17:37;;;;;;;4.43;2.95;;;25.40;53.40;;;;;;5075304;28;20060;-90
2022/07/08 02:20:11;;;;;;;5.47;2.80;;;25.30;53.30;;;;;;5074233;28;20028;-79
2022/07/08 02:22:37;;;;;;;5.28;3.15;;;25.20;53.50;;;;;;5074911;28;20379;-81
2022/07/08 02:25:04;;;;;;;4.72;3.35;;;25.10;53.50;;;;;;5057318;28;20060;-90
2022/07/08 02:27:31;;;;;;;4.22;2.63;;;25.30;53.50;;;;;;5075278;28;20049;-81
2022/07/08 02:29:57;;;;;;;3.85;2.70;;;25.20;53.60;;;;;;5056172;28;20033;-86
2022/07/08 02:32:22;;;;;;;6.47;3.42;;;25.10;53.70;;;;;;5057463;28;20023;-83
2022/07/08 02:34:48;;;;;;;6.18;3.00;;;25.20;53.40;;;;;;5057686;28;20475;-88
2022/07/08 02:37:14;;;;;;;3.55;2.80;;;25.00;53.80;;;;;;5075423;28;20024;-77
2022/07/08 02:39:41;;;;;;;6.28;3.00;;;24.90;54.00;;;;;;5056709;28;20035;-81
2022/07/08 02:42:08;;;;;;;4.93;3.00;;;24.80;54.20;;;;;;5058123;28;20070;-81
2022/07/08 02:44:35;;;;;;;5.38;2.90;;;24.90;53.90;;;;;;5057802;28;20024;-79
2022/07/08 02:47:03;;;;;;;4.05;3.22;;;24.80;54.20;;;;;;5056828;28;20498;-81
2022/07/08 02:49:28;;;;;;;6.18;3.28;;;24.90;54.00;;;;;;5056370;28;20037;-79
2022/07/08 02:51:54;;;;;;;4.82;3.15;;;24.90;53.60;;;;;;5074919;28;20028;-81
2022/07/08 02:54:20;;;;;;;5.22;3.25;;;24.80;54.20;;;;;;5075410;28;20476;-80
2022/07/08 02:56:46;;;;;;;4.93;3.20;;;24.90;53.90;;;;;;5074793;28;20469;-87
2022/07/08 02:59:11;;;;;;;5.15;3.28;;;25.00;53.70;;;;;;5056108;28;20020;-79
2022/07/08 03:01:37;;;;;;;4.88;3.22;;;25.10;53.40;;;;;;5075193;28;20024;-85
2022/07/08 03:04:03;;;;;;;3.95;2.95;;;25.10;53.70;;;;;;5056679;28;20020;-85
2022/07/08 03:06:28;;;;;;;4.95;3.40;;;24.90;53.60;;;;;;5074807;28;20032;-85
2022/07/08 03:09:01;;;;;;;5.45;3.60;;;24.90;53.90;;;;;;5073535;28;20032;-86
2022/07/08 03:11:27;;;;;;;5.53;3.30;;;24.60;54.50;;;;;;5074711;28;20056;-78
2022/07/08 03:13:53;;;;;;;5.00;4.05;;;24.60;54.50;;;;;;5057331;28;20112;-80
2022/07/08 03:16:19;;;;;;;4.25;3.00;;;24.50;54.40;;;;;;5056644;28;20463;-84
2022/07/08 03:18:45;;;;;;;4.63;3.30;;;24.60;54.50;;;;;;5073425;28;20023;-80
2022/07/08 03:21:11;;;;;;;5.75;3.33;;;24.60;54.90;;;;;;5056294;28;20095;-79
2022/07/08 03:23:37;;;;;;;6.05;3.35;;;24.60;54.50;;;;;;5055680;28;20040;-79
2022/07/08 03:26:02;;;;;;;4.68;3.15;;;24.60;55.10;;;;;;5073722;28;20059;-79
2022/07/08 03:28:28;;;;;;;5.80;3.25;;;24.60;54.70;;;;;;5074574;28;20070;-79
2022/07/08 03:30:54;;;;;;;5.55;3.17;;;24.70;54.70;;;;;;5072858;28;20503;-76
2022/07/08 03:33:20;;;;;;;4.68;3.40;;;24.60;54.40;;;;;;5074043;28;20349;-79
2022/07/08 03:35:45;;;;;;;3.90;3.30;;;24.50;54.80;;;;;;5056487;28;20024;-80
2022/07/08 03:38:11;;;;;;;4.35;3.20;;;24.30;55.10;;;;;;5051164;28;20094;-83
2022/07/08 03:43:21;;;;;;;4.38;3.22;;;24.50;55.10;;;;;;5054445;28;20074;-79
2022/07/08 03:45:47;;;;;;;4.45;3.47;;;24.50;55.10;;;;;;5054442;28;20071;-82
2022/07/08 03:48:13;;;;;;;4.47;3.30;;;24.40;55.20;;;;;;5058146;28;20107;-82
2022/07/08 03:50:39;;;;;;;4.82;3.40;;;24.50;55.00;;;;;;5074226;28;20025;-78
2022/07/08 03:53:05;;;;;;;4.38;3.45;;;24.60;54.70;;;;;;5074167;28;20017;-80
2022/07/08 03:55:30;;;;;;;6.05;3.42;;;24.60;54.90;;;;;;5056137;28;20086;-81
2022/07/08 03:57:57;;;;;;;5.05;3.47;;;24.70;54.90;;;;;;5054602;28;20390;-82
2022/07/08 04:00:23;;;;;;;4.18;3.00;;;24.50;55.50;;;;;;5055530;28;20027;-85
2022/07/08 04:02:49;;;;;;;4.15;3.20;;;24.60;55.20;;;;;;5057334;28;20025;-80
2022/07/08 04:05:15;;;;;;;6.30;3.40;;;24.70;55.10;;;;;;5056106;28;20467;-81
2022/07/08 04:07:41;;;;;;;4.05;3.10;;;24.80;54.60;;;;;;5055847;28;20048;-81
2022/07/08 04:10:08;;;;;;;4.45;3.30;;;25.00;54.60;;;;;;5061134;28;20031;-84
2022/07/08 04:12:33;;;;;;;4.32;3.30;;;25.10;54.40;;;;;;5053259;28;20070;-77
2022/07/08 04:14:59;;;;;;;4.80;3.17;;;25.00;54.30;;;;;;5053485;28;20024;-82
2022/07/08 04:17:25;;;;;;;4.90;3.25;;;24.60;54.80;;;;;;5052178;28;20025;-82
2022/07/08 04:19:51;;;;;;;4.68;3.13;;;24.50;55.40;;;;;;5061538;28;20391;-86
2022/07/08 04:22:16;;;;;;;4.30;3.00;;;24.60;55.60;;;;;;5054414;28;20024;-81
2022/07/08 04:24:42;;;;;;;6.20;3.50;;;24.80;54.90;;;;;;5055431;28;20073;-81
2022/07/08 04:27:08;;;;;;;6.63;3.30;;;25.00;54.60;;;;;;5072909;28;20075;-79
2022/07/08 04:29:33;;;;;;;5.88;3.25;;;25.20;54.40;;;;;;5063646;28;20032;-80
2022/07/08 04:31:59;;;;;;;6.22;3.60;;;25.40;54.00;;;;;;5052747;28;20116;-81
2022/07/08 04:34:28;;;;;;;4.65;3.30;;;25.40;54.10;;;;;;5053330;28;20025;-80
2022/07/08 04:36:54;;;;;;;8.13;5.00;;;25.40;54.10;;;;;;5053636;28;20029;-85
2022/07/08 04:39:19;;;;;;;6.03;3.50;;;25.10;54.60;;;;;;5040684;28;20074;-80
2022/07/08 04:41:45;;;;;;;10.30;3.80;;;24.90;54.80;;;;;;5054072;28;20021;-84
2022/07/08 04:44:11;;;;;;;6.43;3.53;;;24.90;55.10;;;;;;5072129;28;20137;-77
2022/07/08 04:46:37;;;;;;;5.05;3.55;;;25.20;54.40;;;;;;5053674;28;20040;-81
2022/07/08 04:49:03;;;;;;;5.22;3.13;;;25.50;54.20;;;;;;5055232;28;20028;-79
2022/07/08 04:51:28;;;;;;;6.47;3.38;;;25.40;53.90;;;;;;5070889;28;20055;-85
2022/07/08 04:53:56;;;;;;;4.13;2.92;;;25.70;54.00;;;;;;5071958;28;20056;-86
2022/07/08 04:56:22;;;;;;;4.72;3.15;;;25.50;54.10;;;;;;5072203;28;20104;-85
2022/07/08 04:58:48;;;;;;;4.20;3.40;;;25.20;54.20;;;;;;5072661;28;20131;-79
2022/07/08 05:01:18;;;;;;;5.60;3.28;;;25.10;54.60;;;;;;5071586;28;20017;-76
2022/07/08 05:03:44;;;;;;;4.57;3.28;;;25.20;54.40;;;;;;5054076;28;20028;-82
2022/07/08 05:06:10;;;;;;;5.32;3.75;;;25.00;55.40;;;;;;5054999;28;20442;-79
2022/07/08 05:08:36;;;;;;;4.25;3.60;;;25.10;54.40;;;;;;5071400;28;20527;-78
2022/07/08 05:11:01;;;;;;;6.10;3.05;;;25.30;54.30;;;;;;5072661;28;20502;-79
2022/07/08 05:13:27;;;;;;;5.60;3.15;;;25.10;54.40;;;;;;5054375;28;20029;-80
2022/07/08 05:15:53;;;;;;;5.40;3.42;;;25.00;55.00;;;;;;5072573;28;20051;-81
2022/07/08 05:18:19;;;;;;;7.57;3.38;;;25.00;54.90;;;;;;5053342;28;20029;-77
2022/07/08 05:20:45;;;;;;;3.92;3.17;;;25.10;54.90;;;;;;5070004;28;20013;-78
2022/07/08 05:23:11;;;;;;;7.32;3.80;;;25.10;55.00;;;;;;5071464;28;20444;-83
2022/07/08 05:25:36;;;;;;;5.43;3.83;;;25.50;54.30;;;;;;5074433;28;20040;-75
2022/07/08 05:28:02;;;;;;;5.45;3.38;;;25.80;54.00;;;;;;5073331;28;20124;-77
2022/07/08 05:30:28;;;;;;;5.18;3.53;;;25.90;54.00;;;;;;5074871;28;20024;-79
2022/07/08 05:32:53;;;;;;;4.97;3.25;;;26.20;53.60;;;;;;5075286;28;20040;-83
2022/07/08 05:35:19;;;;;;;4.97;3.20;;;26.20;53.50;;;;;;5075013;28;20463;-81
2022/07/08 05:37:45;;;;;;;4.53;3.40;;;26.30;53.70;;;;;;5074518;28;20028;-88
2022/07/08 05:40:11;;;;;;;4.45;3.20;;;26.30;53.70;;;;;;5057074;28;20025;-87
2022/07/08 05:42:37;;;;;;;4.57;3.38;;;26.30;53.70;;;;;;5056803;28;20039;-84
2022/07/08 05:45:04;;;;;;;4.40;3.20;;;26.40;53.90;;;;;;5074754;28;20020;-85
2022/07/08 05:47:30;;;;;;;4.50;3.20;;;26.50;53.80;;;;;;5056697;28;20042;-83
2022/07/08 05:49:56;;;;;;;4.68;3.25;;;26.40;53.70;;;;;;5075405;28;20020;-89
2022/07/08 05:52:22;;;;;;;4.28;3.05;;;26.40;54.20;;;;;;5058621;28;20028;-84
2022/07/08 05:54:48;;;;;;;6.63;3.40;;;26.20;54.10;;;;;;5058640;28;20417;-82
2022/07/08 05:57:14;;;;;;;3.90;3.03;;;26.30;54.50;;;;;;5057088;28;20024;-79
2022/07/08 05:59:41;;;;;;;4.07;3.30;;;26.60;53.90;;;;;;5075075;28;20411;-82
2022/07/08 06:02:07;;;;;;;4.95;3.20;;;26.80;53.70;;;;;;5057700;28;20024;-80
2022/07/08 06:04:33;;;;;;;6.22;3.00;;;26.90;53.60;;;;;;5057817;28;20024;-82
2022/07/08 06:06:58;;;;;;;4.55;3.17;;;27.10;53.70;;;;;;5075515;28;20063;-79
2022/07/08 06:09:24;;;;;;;4.78;3.05;;;27.30;53.20;;;;;;5074203;28;20078;-87
2022/07/08 06:11:50;;;;;;;5.63;3.35;;;27.60;52.60;;;;;;4723039;28;10000389;-81
2022/07/08 06:14:17;;;;;;;3.50;2.85;;;27.80;52.50;;;;;;5055589;28;20024;-85
2022/07/08 06:16:43;;;;;;;4.78;2.63;;;28.20;52.20;;;;;;5053375;28;20078;-78
2022/07/08 06:19:09;;;;;;;4.38;3.15;;;28.40;52.10;;;;;;5073848;28;20028;-78
2022/07/08 06:21:35;;;;;;;4.38;3.15;;;28.40;52.10;;;;;;5072145;28;20395;-82
2022/07/08 06:24:01;;;;;;;4.50;3.47;;;28.30;52.20;;;;;;5054875;28;20037;-78
2022/07/08 06:26:27;;;;;;;3.85;3.08;;;28.20;52.20;;;;;;5072342;28;20048;-86
2022/07/08 06:28:53;;;;;;;4.03;2.97;;;27.90;52.60;;;;;;5071720;28;20028;-83
2022/07/08 06:31:18;;;;;;;3.78;2.80;;;28.00;52.00;;;;;;5055204;28;20364;-84
2022/07/08 06:33:44;;;;;;;4.82;2.90;;;27.90;52.10;;;;;;5054549;28;20449;-83
2022/07/08 06:36:10;;;;;;;4.72;3.33;;;27.90;52.30;;;;;;5071610;28;20387;-82
2022/07/08 06:38:35;;;;;;;3.65;3.05;;;28.10;52.30;;;;;;5073734;28;20505;-85
2022/07/08 06:41:01;;;;;;;4.13;3.03;;;28.40;51.60;;;;;;5055774;28;20124;-80
2022/07/08 06:43:27;;;;;;;4.53;3.17;;;28.50;52.00;;;;;;5054791;28;20413;-79
2022/07/08 06:45:53;;;;;;;19.48;3.20;;;28.70;51.60;;;;;;5054024;28;20078;-82
2022/07/08 06:48:18;;;;;;;4.82;3.40;;;28.70;51.40;;;;;;5072925;28;20024;-89
2022/07/08 06:50:44;;;;;;;4.38;3.10;;;28.40;51.70;;;;;;5054855;28;20101;-78
2022/07/08 06:53:10;;;;;;;3.67;2.83;;;28.30;51.80;;;;;;5072380;28;20039;-79
2022/07/08 06:55:36;;;;;;;4.13;2.90;;;28.50;52.20;;;;;;5054965;28;20062;-80
2022/07/08 06:58:01;;;;;;;4.05;3.03;;;28.70;51.80;;;;;;5072741;28;20426;-81
2022/07/08 07:00:27;;;;;;;4.03;2.97;;;28.80;51.10;;;;;;5071644;28;20452;-86
2022/07/08 07:02:54;;;;;;;3.90;2.85;;;28.70;52.00;;;;;;5061370;28;20070;-84
2022/07/08 07:05:23;;;;;;;4.53;3.35;;;28.70;51.50;;;;;;5053864;28;20031;-81
2022/07/08 07:07:49;;;;;;;4.28;2.92;;;28.40;51.80;;;;;;5057054;28;20028;-86
2022/07/08 07:10:14;;;;;;;4.20;2.90;;;28.20;52.10;;;;;;5071078;28;20035;-81
2022/07/08 07:12:40;;;;;;;4.82;2.95;;;28.10;51.90;;;;;;5052972;28;20024;-84
2022/07/08 07:15:06;;;;;;;3.78;2.58;;;27.90;52.10;;;;;;5057230;28;20028;-84
2022/07/08 07:17:32;;;;;;;5.03;3.63;;;27.90;52.60;;;;;;5054640;28;20070;-80
2022/07/08 07:19:59;;;;;;;3.90;3.10;;;28.00;52.30;;;;;;5054070;28;20025;-88
2022/07/08 07:22:25;;;;;;;4.80;3.00;;;28.50;52.20;;;;;;5055192;28;20104;-84
2022/07/08 07:24:51;;;;;;;4.68;3.10;;;28.90;51.10;;;;;;5052785;28;20105;-77
2022/07/08 07:27:17;;;;;;;5.57;3.00;;;29.20;51.80;;;;;;5070004;28;20068;-85
2022/07/08 07:29:43;;;;;;;5.32;3.00;;;29.50;51.20;;;;;;5054319;28;20025;-89
2022/07/08 07:32:08;;;;;;;4.00;2.90;;;29.80;51.10;;;;;;5055882;28;20031;-80
2022/07/08 07:34:34;;;;;;;3.90;2.72;;;30.20;50.50;;;;;;5059343;28;20614;-79
2022/07/08 07:37:00;;;;;;;4.43;3.20;;;30.30;50.50;;;;;;5070346;28;20032;-82
2022/07/08 07:39:26;;;;;;;5.90;3.25;;;30.30;50.00;;;;;;5050121;28;20064;-80
2022/07/08 07:41:53;;;;;;;3.67;3.00;;;30.50;50.20;;;;;;5054135;28;20034;-79
2022/07/08 07:44:18;;;;;;;4.97;3.00;;;30.40;49.60;;;;;;5069021;28;20039;-77
2022/07/08 07:46:44;;;;;;;9.10;4.72;;;30.50;49.70;;;;;;5060603;28;20037;-79
2022/07/08 07:49:10;;;;;;;5.38;3.33;;;30.20;49.50;;;;;;5040160;28;20066;-81
2022/07/08 07:51:36;;;;;;;5.85;3.50;;;30.10;50.30;;;;;;5052770;28;20037;-78
2022/07/08 07:54:02;;;;;;;5.07;3.40;;;29.70;49.30;;;;;;5070572;28;20036;-81
2022/07/08 07:56:27;;;;;;;5.25;3.13;;;29.60;49.70;;;;;;5052197;28;20501;-80
2022/07/08 07:58:53;;;;;;;4.43;3.20;;;30.00;49.90;;;;;;5050074;28;20436;-82
2022/07/08 08:01:20;;;;;;;4.35;2.95;;;30.40;48.20;;;;;;5049805;28;20039;-79
2022/07/08 08:03:45;;;;;;;5.25;3.15;;;30.40;48.20;;;;;;5069172;28;20099;-78
2022/07/08 08:06:11;;;;;;;4.85;3.25;;;30.40;47.80;;;;;;5066889;28;20089;-83
2022/07/08 08:08:37;;;;;;;7.40;2.92;;;30.70;47.70;;;;;;5046293;28;20077;-84
2022/07/08 08:11:03;;;;;;;4.57;3.40;;;31.00;47.30;;;;;;5052534;28;20166;-78
2022/07/08 08:13:29;;;;;;;5.47;3.20;;;31.10;47.30;;;;;;5052821;28;20028;-79
2022/07/08 08:15:55;;;;;;;5.72;3.30;;;31.10;47.30;;;;;;5054491;28;20556;-79
2022/07/08 08:18:21;;;;;;;5.65;3.30;;;30.90;46.70;;;;;;5070166;28;20024;-80
2022/07/08 08:20:47;;;;;;;4.93;3.35;;;30.60;47.00;;;;;;5050232;28;20032;-78
2022/07/08 08:23:13;;;;;;;4.75;3.42;;;30.70;47.60;;;;;;5065931;28;20510;-76
2022/07/08 08:25:39;;;;;;;3.90;3.10;;;30.80;47.10;;;;;;5066790;28;20029;-78
2022/07/08 08:28:07;;;;;;;6.53;4.13;;;30.70;47.00;;;;;;5069519;28;20032;-86
2022/07/08 08:30:33;;;;;;;4.75;3.30;;;30.80;47.60;;;;;;5050651;28;20035;-77
2022/07/08 08:32:59;;;;;;;4.90;3.00;;;31.10;47.10;;;;;;5068529;28;20024;-77
2022/07/08 08:35:25;;;;;;;5.68;3.28;;;31.50;46.50;;;;;;5067966;28;20051;-77
2022/07/08 08:37:51;;;;;;;8.10;3.17;;;31.70;46.20;;;;;;5051001;28;20036;-75
2022/07/08 08:40:24;;;;;;;5.28;3.45;;;31.30;45.60;;;;;;5050659;28;20024;-78
2022/07/08 08:42:50;;;;;;;4.78;3.30;;;30.50;48.40;;;;;;5052227;28;20036;-82
2022/07/08 08:45:15;;;;;;;4.78;3.03;;;31.00;48.10;;;;;;5050987;28;20033;-79
2022/07/08 08:47:45;;;;;;;4.18;2.75;;;31.60;47.00;;;;;;5069706;28;20429;-80
2022/07/08 08:52:56;;;;;;;4.35;3.00;;;31.90;46.30;;;;;;5068828;28;20027;-79
2022/07/08 08:55:35;;;;;;;5.90;3.17;;;31.90;46.50;;;;;;5051565;28;20029;-76
2022/07/08 08:58:03;;;;;;;5.95;3.17;;;31.90;45.70;;;;;;5052918;28;20032;-85
2022/07/08 09:00:31;;;;;;;5.30;3.10;;;31.20;46.50;;;;;;5056147;28;20028;-80
2022/07/08 09:02:57;;;;;;;3.70;3.00;;;31.10;47.00;;;;;;5073610;28;20035;-81
2022/07/08 09:05:24;;;;;;;5.15;3.00;;;31.30;46.90;;;;;;5072659;28;20407;-78
2022/07/08 09:07:50;;;;;;;4.63;2.88;;;31.40;46.60;;;;;;5056753;28;20033;-80
2022/07/08 09:10:17;;;;;;;3.80;2.85;;;31.40;46.70;;;;;;5054921;28;20028;-77
2022/07/08 09:13:31;;;;;;;4.53;3.00;;;31.80;45.50;;;;;;5054508;28;20032;-78
2022/07/08 09:15:59;;;;;;;6.00;2.90;;;32.20;46.20;;;;;;4971157;28;20038;-79
2022/07/08 09:18:35;;;;;;;4.72;2.80;;;32.30;45.50;;;;;;4957086;28;20122;-85
2022/07/08 09:21:02;;;;;;;4.60;2.70;;;32.30;43.90;;;;;;4954893;28;20081;-78
2022/07/08 09:23:33;;;;;;;5.47;3.17;;;32.40;44.20;;;;;;4969928;28;20437;-82
2022/07/08 09:26:07;;;;;;;4.75;3.10;;;32.50;44.70;;;;;;4956353;28;20409;-79
2022/07/08 09:28:36;;;;;;;4.30;3.10;;;32.50;45.50;;;;;;4957270;28;20062;-78
2022/07/08 09:31:09;;;;;;;4.65;2.85;;;32.40;45.20;;;;;;4972499;28;20038;-87
2022/07/08 09:33:36;;;;;;;4.65;3.17;;;32.60;45.50;;;;;;4955841;28;20050;-78
2022/07/08 09:36:03;;;;;;;4.57;2.97;;;32.60;45.30;;;;;;4970304;28;20039;-84
2022/07/08 09:38:32;;;;;;;6.80;2.80;;;32.80;44.90;;;;;;4973720;28;20023;-75
2022/07/08 09:41:09;;;;;;;6.30;2.60;;;32.80;44.30;;;;;;4974522;28;20183;-78
2022/07/08 09:43:44;;;;;;;3.33;2.50;;;32.60;43.10;;;;;;4958576;28;20035;-79
2022/07/08 09:46:13;;;;;;;4.57;3.03;;;32.80;44.20;;;;;;5028792;28;20150;-85
2022/07/08 09:48:39;;;;;;;4.97;2.70;;;32.70;43.30;;;;;;5071982;28;20017;-79
2022/07/08 09:51:07;;;;;;;4.28;2.67;;;33.10;43.50;;;;;;5058085;28;20048;-83
2022/07/08 09:53:33;;;;;;;4.53;3.00;;;33.20;43.10;;;;;;5052947;28;20017;-84
2022/07/08 09:56:00;;;;;;;3.92;2.80;;;33.30;42.70;;;;;;5071134;28;20025;-78
2022/07/08 09:58:28;;;;;;;6.43;2.80;;;33.30;43.60;;;;;;5073869;28;20247;-82
2022/07/08 10:00:55;;;;;;;8.38;7.63;;;33.20;43.10;;;;;;5059707;28;20028;-78
2022/07/08 10:03:25;;;;;;;4.10;2.53;;;33.00;44.00;;;;;;5075241;28;20021;-89
2022/07/08 10:05:51;;;;;;;4.28;2.55;;;33.00;44.00;;;;;;5075784;28;20040;-77
2022/07/08 10:08:18;;;;;;;9.38;2.75;;;33.20;43.00;;;;;;5074447;28;20607;-86
2022/07/08 10:10:45;;;;;;;4.95;2.60;;;33.60;42.60;;;;;;5074189;28;20420;-80
2022/07/08 10:13:11;;;;;;;5.80;2.80;;;33.90;41.80;;;;;;5074912;28;20028;-82
2022/07/08 10:15:38;;;;;;;4.03;2.50;;;33.90;42.50;;;;;;5056264;28;20391;-76
2022/07/08 10:18:21;;;;;;;4.22;2.72;;;34.00;41.70;;;;;;5072488;28;20081;-87
2022/07/08 10:20:53;;;;;;;4.43;2.70;;;33.70;41.70;;;;;;5055910;28;20167;-77
2022/07/08 10:23:40;;;;;;;4.90;2.60;;;32.90;42.10;;;;;;5075365;28;20086;-80
2022/07/08 10:26:10;;;;;;;5.07;2.40;;;32.70;42.50;;;;;;5074255;28;20045;-90
2022/07/08 10:28:41;;;;;;;3.90;2.53;;;33.10;43.00;;;;;;5056819;28;20441;-76
2022/07/08 10:31:20;;;;;;;4.93;2.60;;;33.10;42.80;;;;;;5055719;28;20585;-80
2022/07/08 10:33:46;;;;;;;3.95;2.53;;;33.40;42.90;;;;;;5055173;28;20029;-87
2022/07/08 10:36:12;;;;;;;4.88;2.80;;;33.50;42.50;;;;;;5048301;28;20032;-77
2022/07/08 10:38:40;;;;;;;3.97;2.60;;;33.60;42.60;;;;;;5074004;28;20056;-75
2022/07/08 10:41:13;;;;;;;6.07;2.60;;;33.50;42.50;;;;;;5074666;28;20402;-84
2022/07/08 10:43:53;;;;;;;3.20;2.53;;;33.00;43.20;;;;;;4713995;28;10000217;-77
2022/07/08 10:46:20;;;;;;;6.93;2.80;;;33.10;43.80;;;;;;5075644;28;20160;-79
2022/07/08 10:48:51;;;;;;;5.10;2.70;;;33.30;43.10;;;;;;5069913;28;20024;-79
2022/07/08 10:51:20;;;;;;;3.72;2.92;;;33.70;42.90;;;;;;5054690;28;20024;-89
2022/07/08 10:53:52;;;;;;;4.47;2.70;;;33.70;43.90;;;;;;5054738;28;20025;-78
2022/07/08 10:56:48;;;;;;;5.20;2.83;;;33.70;43.30;;;;;;5054803;28;20074;-84
2022/07/08 10:59:24;;;;;;;3.85;2.90;;;33.50;43.80;;;;;;5074841;28;20029;-86
2022/07/08 11:02:16;;;;;;;4.75;2.90;;;33.50;44.10;;;;;;5056307;28;20013;-75
2022/07/08 11:04:45;;;;;;;7.03;3.20;;;33.70;44.80;;;;;;5054741;28;20040;-87
2022/07/08 11:07:20;;;;;;;5.07;3.20;;;33.50;43.40;;;;;;5036915;28;20045;-79
2022/07/08 11:10:09;;;;;;;4.13;2.80;;;33.70;44.30;;;;;;5054614;28;20084;-77
2022/07/08 11:12:39;;;;;;;5.10;3.00;;;33.60;43.00;;;;;;5072449;28;20024;-77
2022/07/08 11:15:12;;;;;;;4.85;2.60;;;33.40;42.90;;;;;;5053090;28;20072;-81
2022/07/08 11:17:40;;;;;;;5.38;2.90;;;33.20;43.40;;;;;;4708347;28;10000005;-78
2022/07/08 11:20:09;;;;;;;4.55;2.50;;;33.50;43.80;;;;;;5059585;28;20450;-83
2022/07/08 11:22:37;;;;;;;5.78;2.70;;;33.70;43.80;;;;;;5071678;28;20024;-77
2022/07/08 11:25:05;;;;;;;5.20;2.90;;;33.80;43.10;;;;;;5054220;28;20028;-83
2022/07/08 11:27:33;;;;;;;3.80;2.85;;;33.70;43.40;;;;;;5051363;28;20048;-79
2022/07/08 11:30:00;;;;;;;5.47;3.13;;;33.60;44.00;;;;;;5071924;28;20112;-81
2022/07/08 11:32:27;;;;;;;4.63;2.92;;;33.80;43.50;;;;;;5053211;28;20028;-77
2022/07/08 11:34:54;;;;;;;4.00;3.10;;;33.90;43.70;;;;;;5051171;28;20043;-85
2022/07/08 11:37:20;;;;;;;5.00;3.10;;;33.70;43.60;;;;;;5047840;28;20031;-76
2022/07/08 11:39:47;;;;;;;7.10;3.10;;;33.30;43.70;;;;;;5068248;28;20104;-75
2022/07/08 11:42:14;;;;;;;5.05;3.20;;;33.30;43.80;;;;;;5070797;28;20032;-79
2022/07/08 11:44:40;;;;;;;3.90;2.92;;;33.40;44.80;;;;;;5053143;28;20455;-81
2022/07/08 11:47:07;;;;;;;4.70;3.22;;;33.30;43.40;;;;;;5070331;28;20040;-79
2022/07/08 11:49:39;;;;;;;6.95;2.90;;;33.20;44.20;;;;;;5053217;28;20025;-88
2022/07/08 11:52:08;;;;;;;4.20;2.80;;;33.30;44.60;;;;;;5066049;28;20422;-91
2022/07/08 11:54:34;;;;;;;3.85;2.70;;;33.40;44.60;;;;;;5054069;28;20032;-79
2022/07/08 11:57:01;;;;;;;4.25;2.97;;;33.40;43.40;;;;;;5053784;28;20024;-81
2022/07/08 11:59:29;;;;;;;5.78;2.50;;;33.50;44.20;;;;;;5058639;28;20375;-81
2022/07/08 12:01:57;;;;;;;4.55;2.83;;;33.50;43.30;;;;;;5043807;28;20036;-80
2022/07/08 12:04:23;;;;;;;4.53;2.80;;;33.60;43.70;;;;;;5073100;28;20438;-79
2022/07/08 12:06:53;;;;;;;4.75;2.67;;;33.90;44.00;;;;;;5053557;28;20059;-77
2022/07/08 12:09:21;;;;;;;4.93;2.65;;;33.70;42.40;;;;;;5070877;28;20021;-89
2022/07/08 12:11:52;;;;;;;3.78;2.78;;;33.40;42.30;;;;;;5071471;28;20116;-74
2022/07/08 12:14:19;;;;;;;5.10;2.78;;;33.30;42.80;;;;;;5033067;28;20057;-76
2022/07/08 12:16:47;;;;;;;3.85;2.92;;;33.30;43.10;;;;;;5072797;28;20052;-85
2022/07/08 12:19:34;;;;;;;5.95;3.08;;;33.30;44.40;;;;;;5072457;28;20047;-89
2022/07/08 12:22:08;;;;;;;5.20;3.13;;;33.40;45.40;;;;;;5052952;28;20021;-82
2022/07/08 12:24:41;;;;;;;5.65;3.20;;;33.40;44.70;;;;;;5056600;28;20417;-80
2022/07/08 12:27:15;;;;;;;4.93;3.17;;;33.20;44.40;;;;;;5051301;28;20057;-83
2022/07/08 12:29:41;;;;;;;5.85;3.42;;;32.80;45.00;;;;;;5055907;28;20044;-83
2022/07/08 12:32:11;;;;;;;4.65;3.13;;;32.70;45.80;;;;;;5073495;28;20033;-85
2022/07/08 12:34:37;;;;;;;4.50;3.00;;;33.00;46.20;;;;;;5073317;28;20721;-87
2022/07/08 12:37:18;;;;;;;6.15;3.10;;;33.10;45.00;;;;;;5055949;28;20025;-86
2022/07/08 12:39:46;;;;;;;5.22;3.08;;;33.30;45.60;;;;;;5055684;28;20035;-78
2022/07/08 12:42:12;;;;;;;5.50;3.20;;;33.00;44.70;;;;;;5072660;28;20037;-80
2022/07/08 12:44:39;;;;;;;4.95;3.00;;;32.60;45.30;;;;;;5073269;28;20017;-88
2022/07/08 12:47:15;;;;;;;6.43;3.00;;;32.60;45.20;;;;;;5073251;28;20028;-78
2022/07/08 12:49:43;;;;;;;4.70;3.28;;;32.60;45.30;;;;;;5067264;28;20495;-85
2022/07/08 12:52:10;;;;;;;8.18;3.10;;;32.60;45.40;;;;;;5073770;28;20386;-79